createdAt,value
2022-10-12T05:00:20.041Z,62.58
2022-10-12T05:02:48.688Z,62.55
2022-10-12T05:05:17.446Z,62.53
2022-10-12T05:07:46.123Z,62.58
2022-10-12T05:10:15.015Z,62.60
2022-10-12T05:12:43.883Z,62.56
2022-10-12T05:15:12.769Z,62.58
2022-10-12T05:17:41.466Z,62.60
2022-10-12T05:20:10.430Z,62.56
2022-10-12T05:22:42.949Z,62.70
2022-10-12T05:25:11.553Z,62.66
2022-10-12T05:27:40.193Z,62.71
2022-10-12T05:30:09.936Z,62.76
2022-10-12T05:32:39.549Z,62.81
2022-10-12T05:35:08.742Z,62.98
2022-10-12T05:37:38.010Z,62.89
2022-10-12T05:40:08.145Z,62.99
2022-10-12T05:42:37.120Z,63.00
2022-10-12T05:45:06.025Z,63.17
2022-10-12T05:47:35.369Z,63.20
2022-10-12T05:50:04.478Z,63.00
2022-10-12T05:52:32.460Z,63.03
2022-10-12T05:55:00.500Z,63.30
2022-10-12T05:57:29.347Z,63.24
2022-10-12T05:59:58.341Z,63.25
2022-10-12T06:02:27.163Z,63.11
2022-10-12T06:04:56.081Z,63.41
2022-10-12T06:07:27.756Z,63.28
2022-10-12T06:09:56.857Z,63.25
2022-10-12T06:12:27.201Z,63.32
2022-10-12T06:14:55.481Z,63.33
2022-10-12T06:17:23.985Z,63.58
2022-10-12T06:19:53.179Z,63.51
2022-10-12T06:22:21.737Z,63.54
2022-10-12T06:24:51.275Z,63.71
2022-10-12T06:27:20.946Z,63.85
2022-10-12T06:29:49.932Z,63.57
2022-10-12T06:32:18.005Z,63.91
2022-10-12T06:34:47.037Z,63.96
2022-10-12T06:37:37.155Z,63.79
2022-10-12T06:40:04.756Z,63.95
2022-10-12T06:42:33.598Z,63.72
2022-10-12T06:45:02.336Z,64.20
2022-10-12T06:47:31.120Z,63.78
2022-10-12T06:49:59.876Z,63.91
2022-10-12T06:52:29.006Z,64.03
2022-10-12T06:54:57.452Z,63.99
2022-10-12T06:57:28.457Z,64.05
2022-10-12T06:59:57.780Z,64.35
2022-10-12T07:02:27.153Z,64.26
2022-10-12T07:04:56.047Z,64.21
2022-10-12T07:07:24.212Z,64.52
2022-10-12T07:09:53.347Z,64.21
2022-10-12T07:12:21.827Z,64.35
2022-10-12T07:14:51.163Z,64.35
2022-10-12T07:17:19.934Z,64.48
2022-10-12T07:19:48.652Z,64.59
2022-10-12T07:22:17.003Z,64.62
2022-10-12T07:24:45.146Z,64.76
2022-10-12T07:27:13.532Z,64.68
2022-10-12T07:29:42.201Z,64.43
2022-10-12T07:32:10.865Z,64.77
2022-10-12T07:34:38.995Z,64.75
2022-10-12T07:37:07.329Z,64.81
2022-10-12T07:39:35.872Z,64.70
2022-10-12T07:42:04.043Z,64.77
2022-10-12T07:44:32.328Z,64.97
2022-10-12T07:47:01.194Z,64.84
2022-10-12T07:49:29.740Z,64.87
2022-10-12T07:51:58.451Z,64.82
2022-10-12T07:54:29.559Z,65.05
2022-10-12T07:56:58.228Z,65.10
2022-10-12T07:59:27.375Z,65.10
2022-10-12T08:01:56.282Z,64.99
2022-10-12T08:04:24.979Z,65.04
2022-10-12T08:06:53.824Z,65.00
2022-10-12T08:09:22.243Z,65.04
2022-10-12T08:11:50.171Z,65.03
2022-10-12T08:14:18.944Z,65.05
2022-10-12T08:16:47.655Z,65.10
2022-10-12T08:19:16.490Z,65.06
2022-10-12T08:21:45.706Z,65.06
2022-10-12T08:24:14.326Z,65.18
2022-10-12T08:26:43.132Z,65.22
2022-10-12T08:29:11.920Z,65.29
2022-10-12T08:31:40.981Z,65.30
2022-10-12T08:34:10.005Z,65.25
2022-10-12T08:36:38.509Z,65.16
2022-10-12T08:39:09.071Z,65.20
2022-10-12T08:41:56.569Z,65.31
2022-10-12T08:44:44.450Z,65.26
2022-10-12T08:47:17.979Z,65.09
2022-10-12T08:49:50.054Z,65.07
2022-10-12T08:52:29.551Z,65.18
2022-10-12T08:55:01.516Z,65.07
2022-10-12T08:57:30.432Z,64.95
2022-10-12T08:59:59.743Z,65.23
2022-10-12T09:02:50.752Z,65.11
2022-10-12T09:05:42.700Z,65.17
2022-10-12T09:08:20.790Z,65.24
2022-10-12T09:11:01.369Z,65.18
2022-10-12T09:13:36.421Z,65.21
2022-10-12T09:16:28.339Z,65.26
2022-10-12T09:19:02.463Z,65.17
2022-10-12T09:21:31.569Z,65.26
2022-10-12T09:24:01.161Z,65.26
2022-10-12T09:26:38.031Z,65.12
2022-10-12T09:29:23.915Z,64.93
2022-10-12T09:32:01.903Z,64.93
2022-10-12T09:34:31.177Z,64.93
2022-10-12T09:37:02.850Z,64.84
2022-10-12T09:39:33.190Z,64.86
2022-10-12T09:42:02.769Z,64.75
2022-10-12T09:44:36.796Z,64.79
2022-10-12T09:47:09.410Z,64.83
2022-10-12T09:49:42.491Z,64.71
2022-10-12T09:52:12.497Z,64.62
2022-10-12T09:54:46.697Z,64.62
2022-10-12T09:57:26.952Z,64.28
2022-10-12T09:59:56.078Z,64.31
2022-10-12T10:02:29.122Z,63.99
2022-10-12T10:05:14.841Z,63.77
2022-10-12T10:07:43.734Z,63.81
2022-10-12T10:10:30.044Z,63.89
2022-10-12T10:13:02.244Z,63.76
2022-10-12T10:15:34.090Z,63.69
2022-10-12T10:18:04.388Z,63.57
2022-10-12T10:20:45.874Z,63.71
2022-10-12T10:23:37.805Z,63.37
2022-10-12T10:26:07.738Z,63.20
2022-10-12T10:28:37.950Z,63.47
2022-10-12T10:31:09.039Z,63.60
2022-10-12T10:33:38.450Z,63.46
2022-10-12T10:36:24.365Z,63.60
2022-10-12T10:38:59.826Z,63.63
2022-10-12T10:41:33.353Z,63.49
2022-10-12T10:44:03.122Z,63.76
2022-10-12T10:46:33.735Z,63.58
2022-10-12T10:49:07.983Z,63.79
2022-10-12T10:51:48.950Z,63.40
2022-10-12T10:54:24.087Z,63.39
2022-10-12T10:57:13.207Z,63.29
2022-10-12T10:59:51.602Z,63.12
2022-10-12T11:02:39.621Z,63.10
2022-10-12T11:05:14.839Z,62.72
2022-10-12T11:07:49.036Z,62.87
2022-10-12T11:10:23.567Z,62.90
2022-10-12T11:12:55.299Z,62.53
2022-10-12T11:15:28.277Z,62.40
2022-10-12T11:18:04.481Z,62.35
2022-10-12T11:20:47.702Z,62.27
2022-10-12T11:23:36.050Z,62.39
2022-10-12T11:26:16.155Z,62.13
2022-10-12T11:28:45.455Z,62.11
2022-10-12T11:31:34.841Z,62.16
2022-10-12T11:34:10.051Z,62.22
2022-10-12T11:36:55.818Z,62.09
2022-10-12T11:39:43.033Z,62.03
2022-10-12T11:42:22.466Z,62.00
2022-10-12T11:44:56.044Z,61.85
2022-10-12T11:47:48.215Z,61.57
2022-10-12T11:50:36.454Z,61.61
2022-10-12T11:53:12.604Z,61.65
2022-10-12T11:56:10.816Z,61.46
2022-10-12T11:58:59.823Z,61.26
2022-10-12T12:01:40.775Z,61.44
2022-10-12T12:04:40.611Z,61.39
2022-10-12T12:07:07.505Z,60.94
2022-10-12T12:09:36.202Z,61.09
2022-10-12T12:12:20.062Z,61.07
2022-10-12T12:14:49.010Z,61.18
2022-10-12T12:17:18.327Z,60.84
2022-10-12T12:19:47.812Z,60.89
2022-10-12T12:22:49.850Z,60.66
2022-10-12T12:25:20.711Z,60.67
2022-10-12T12:27:56.395Z,60.56
2022-10-12T12:30:36.355Z,60.52
2022-10-12T12:33:18.541Z,60.33
2022-10-12T12:36:05.685Z,60.18
2022-10-12T12:38:36.250Z,60.41
2022-10-12T12:41:19.477Z,60.16
2022-10-12T12:43:53.363Z,60.28
2022-10-12T12:46:23.703Z,60.28
2022-10-12T12:48:51.979Z,60.33
2022-10-12T12:51:22.302Z,60.17
2022-10-12T12:53:54.412Z,60.08
2022-10-12T12:56:42.600Z,60.16
2022-10-12T12:59:23.560Z,60.00
2022-10-12T13:02:04.757Z,59.87
2022-10-12T13:04:43.309Z,59.99
2022-10-12T13:07:15.320Z,59.91
2022-10-12T13:10:02.977Z,59.74
2022-10-12T13:12:44.136Z,59.71
2022-10-12T13:15:19.325Z,59.84
2022-10-12T13:18:14.537Z,59.51
2022-10-12T13:20:49.291Z,59.57
2022-10-12T13:23:21.364Z,59.41
2022-10-12T13:26:10.229Z,59.49
2022-10-12T13:28:43.312Z,59.73
2022-10-12T13:31:31.190Z,59.53
2022-10-12T13:34:00.113Z,59.64
2022-10-12T13:36:30.230Z,59.58
2022-10-12T13:38:59.852Z,59.42
2022-10-12T13:41:32.207Z,59.55
2022-10-12T13:44:04.305Z,59.47
2022-10-12T13:46:52.962Z,59.59
2022-10-12T13:49:26.137Z,59.28
2022-10-12T13:51:56.198Z,59.50
2022-10-12T13:54:34.396Z,59.37
2022-10-12T13:57:05.195Z,59.29
2022-10-12T13:59:37.109Z,59.30
2022-10-12T14:02:22.315Z,59.25
2022-10-12T14:04:53.239Z,59.26
2022-10-12T14:07:36.827Z,59.22
2022-10-12T14:10:08.041Z,59.14
2022-10-12T14:12:36.876Z,59.19
2022-10-12T14:15:06.680Z,59.31
2022-10-12T14:17:42.113Z,59.23
2022-10-12T14:20:29.687Z,59.13
2022-10-12T14:23:00.303Z,59.31
2022-10-12T14:25:30.743Z,59.34
2022-10-12T14:28:05.279Z,59.33
2022-10-12T14:30:41.592Z,59.28
2022-10-12T14:33:15.979Z,59.32
2022-10-12T14:35:48.200Z,59.34
2022-10-12T14:38:34.914Z,59.15
2022-10-12T14:41:22.569Z,59.24
2022-10-12T14:44:24.099Z,59.10
2022-10-12T14:46:53.351Z,59.36
2022-10-12T14:49:26.966Z,59.16
2022-10-12T14:51:56.244Z,59.15
2022-10-12T14:54:24.565Z,59.33
2022-10-12T14:56:53.264Z,59.21
2022-10-12T14:59:22.302Z,59.51
2022-10-12T15:01:51.666Z,59.31
2022-10-12T15:04:20.296Z,59.17
2022-10-12T15:06:51.091Z,59.30
2022-10-12T15:09:19.751Z,59.21
2022-10-12T15:11:48.421Z,59.31
2022-10-12T15:14:16.774Z,59.33
2022-10-12T15:16:44.857Z,59.42
2022-10-12T15:19:13.328Z,59.29
2022-10-12T15:21:41.415Z,59.43
2022-10-12T15:24:15.004Z,59.40
2022-10-12T15:26:43.173Z,59.35
2022-10-12T15:29:12.138Z,59.26
2022-10-12T15:31:40.545Z,59.25
2022-10-12T15:34:13.685Z,59.39
2022-10-12T15:36:42.313Z,59.54
2022-10-12T15:39:11.351Z,59.39
2022-10-12T15:41:39.714Z,59.30
2022-10-12T15:44:09.956Z,59.59
2022-10-12T15:46:38.154Z,59.46
2022-10-12T15:49:06.923Z,59.54
2022-10-12T15:51:38.491Z,59.68
2022-10-12T15:54:07.379Z,59.63
2022-10-12T15:56:35.911Z,59.53
2022-10-12T15:59:04.769Z,59.68
2022-10-12T16:01:35.760Z,59.78
2022-10-12T16:04:05.820Z,59.65
2022-10-12T16:06:34.373Z,59.77
2022-10-12T16:09:05.518Z,59.87
2022-10-12T16:11:34.285Z,59.85
2022-10-12T16:14:02.611Z,59.78
2022-10-12T16:16:33.022Z,59.89
2022-10-12T16:19:01.884Z,59.98
2022-10-12T16:21:30.592Z,60.00
2022-10-12T16:23:58.941Z,59.99
2022-10-12T16:26:27.727Z,60.19
2022-10-12T16:28:55.981Z,60.06
2022-10-12T16:31:24.301Z,60.13
2022-10-12T16:33:52.787Z,60.20
2022-10-12T16:36:20.803Z,60.14
2022-10-12T16:38:49.215Z,60.27
2022-10-12T16:41:19.033Z,60.14
2022-10-12T16:43:48.176Z,60.05
2022-10-12T16:46:16.780Z,60.33
2022-10-12T16:48:45.908Z,60.34
2022-10-12T16:51:14.864Z,60.34
2022-10-12T16:53:44.611Z,60.38
2022-10-12T16:56:13.400Z,60.44
2022-10-12T16:58:42.410Z,60.41
2022-10-12T17:01:11.574Z,60.42
2022-10-12T17:03:40.599Z,60.37
2022-10-12T17:06:09.442Z,60.51
2022-10-12T17:08:39.575Z,60.46
2022-10-12T17:11:09.591Z,60.43
2022-10-12T17:13:39.535Z,60.51
2022-10-12T17:16:27.950Z,60.53
2022-10-12T17:18:59.429Z,60.63
2022-10-12T17:21:31.835Z,60.68
2022-10-12T17:24:01.275Z,60.83
2022-10-12T17:26:30.372Z,60.70
2022-10-12T17:28:59.100Z,60.77
2022-10-12T17:31:28.130Z,60.76
2022-10-12T17:33:57.785Z,60.69
2022-10-12T17:36:28.443Z,60.83
2022-10-12T17:38:58.413Z,60.70
2022-10-12T17:41:28.965Z,60.79
2022-10-12T17:43:58.737Z,60.87
2022-10-12T17:46:28.779Z,60.80
2022-10-12T17:48:59.883Z,60.98
2022-10-12T17:51:28.761Z,60.81
2022-10-12T17:53:57.542Z,60.82
2022-10-12T17:56:27.016Z,61.04
2022-10-12T17:58:59.532Z,60.99
2022-10-12T18:01:29.561Z,60.85
2022-10-12T18:04:04.222Z,61.06
2022-10-12T18:06:33.885Z,60.99
2022-10-12T18:09:03.469Z,60.97
2022-10-12T18:11:32.608Z,61.27
2022-10-12T18:14:01.611Z,61.47
2022-10-12T18:16:32.657Z,61.31
2022-10-12T18:19:02.858Z,61.47
2022-10-12T18:21:32.232Z,61.55
2022-10-12T18:24:05.466Z,61.30
2022-10-12T18:26:34.325Z,61.53
2022-10-12T18:29:03.092Z,61.38
2022-10-12T18:31:31.950Z,61.29
2022-10-12T18:34:00.776Z,61.49
2022-10-12T18:36:29.803Z,61.55
2022-10-12T18:39:02.706Z,61.41
2022-10-12T18:41:30.827Z,61.52
2022-10-12T18:43:59.881Z,61.63
2022-10-12T18:46:28.961Z,61.39
2022-10-12T18:48:57.677Z,61.45
2022-10-12T18:51:27.972Z,61.52
2022-10-12T18:53:56.660Z,61.49
2022-10-12T18:56:26.137Z,61.63
2022-10-12T18:58:54.874Z,61.76
2022-10-12T19:01:24.807Z,61.70
2022-10-12T19:03:55.332Z,61.92
2022-10-12T19:06:25.066Z,61.90
2022-10-12T19:08:56.052Z,61.81
2022-10-12T19:11:25.874Z,61.84
2022-10-12T19:13:56.151Z,62.05
2022-10-12T19:16:24.398Z,61.79
2022-10-12T19:18:57.608Z,61.85
2022-10-12T19:21:26.560Z,61.96
2022-10-12T19:23:54.909Z,61.81
2022-10-12T19:26:24.917Z,61.54
2022-10-12T19:28:54.097Z,61.98
2022-10-12T19:31:25.723Z,61.75
2022-10-12T19:33:58.149Z,61.92
2022-10-12T19:36:27.233Z,61.83
2022-10-12T19:38:57.097Z,61.93
2022-10-12T19:41:26.608Z,61.79
2022-10-12T19:43:54.924Z,61.61
2022-10-12T19:46:23.802Z,62.09
2022-10-12T19:48:53.400Z,61.90
2022-10-12T19:51:22.640Z,62.06
2022-10-12T19:53:55.576Z,62.06
2022-10-12T19:56:25.717Z,62.23
2022-10-12T19:58:56.089Z,61.84
2022-10-12T20:01:24.750Z,61.97
2022-10-12T20:03:53.012Z,61.90
2022-10-12T20:06:23.003Z,62.17
2022-10-12T20:08:52.318Z,61.91
2022-10-12T20:11:24.537Z,62.09
2022-10-12T20:13:53.904Z,62.08
2022-10-12T20:16:23.793Z,62.03
2022-10-12T20:18:53.836Z,62.09
2022-10-12T20:21:23.762Z,62.21
2022-10-12T20:23:53.459Z,61.78
2022-10-12T20:26:26.073Z,62.40
2022-10-12T20:29:00.778Z,62.32
2022-10-12T20:31:34.698Z,62.19
2022-10-12T20:34:06.498Z,62.22
2022-10-12T20:36:37.903Z,62.06
2022-10-12T20:39:06.685Z,62.35
2022-10-12T20:42:27.166Z,62.23
2022-10-12T20:44:41.926Z,62.66
2022-10-12T20:47:22.295Z,62.70
2022-10-12T20:49:51.964Z,62.39
2022-10-12T20:52:21.009Z,62.25
2022-10-12T20:54:53.408Z,62.58
2022-10-12T20:57:22.826Z,62.57
2022-10-12T20:59:51.347Z,62.62
2022-10-12T21:02:19.624Z,62.27
2022-10-12T21:04:51.552Z,62.52
2022-10-12T21:07:20.226Z,62.40
2022-10-12T21:09:48.417Z,62.55
2022-10-12T21:12:17.284Z,62.25
2022-10-12T21:14:46.495Z,62.41
2022-10-12T21:17:15.137Z,62.74
2022-10-12T21:19:43.947Z,62.42
2022-10-12T21:22:12.744Z,62.60
2022-10-12T21:24:40.900Z,62.41
2022-10-12T21:27:08.940Z,62.59
2022-10-12T21:29:37.213Z,62.64
2022-10-12T21:32:06.140Z,62.90
2022-10-12T21:34:34.244Z,62.68
2022-10-12T21:37:02.514Z,62.86
2022-10-12T21:39:31.103Z,62.86
2022-10-12T21:41:59.298Z,62.92
2022-10-12T21:44:27.906Z,62.90
2022-10-12T21:46:56.886Z,62.85
2022-10-12T21:49:25.684Z,62.67
2022-10-12T21:51:54.302Z,62.81
2022-10-12T21:54:22.922Z,63.05
2022-10-12T21:56:51.624Z,62.99
2022-10-12T21:59:20.135Z,62.61
2022-10-12T22:01:49.067Z,63.09
2022-10-12T22:04:17.892Z,63.01
2022-10-12T22:06:46.437Z,63.03
2022-10-12T22:09:17.429Z,63.16
2022-10-12T22:11:47.617Z,63.01
2022-10-12T22:14:17.696Z,62.95
2022-10-12T22:16:46.573Z,62.94
2022-10-12T22:19:19.588Z,63.21
2022-10-12T22:21:49.814Z,63.06
2022-10-12T22:24:19.553Z,63.29
2022-10-12T22:26:48.414Z,63.26
2022-10-12T22:29:17.076Z,63.25
2022-10-12T22:31:46.703Z,63.31
2022-10-12T22:34:17.323Z,62.96
2022-10-12T22:36:46.362Z,63.31
2022-10-12T22:39:14.800Z,63.16
2022-10-12T22:41:46.518Z,63.10
2022-10-12T22:44:15.532Z,63.22
2022-10-12T22:46:45.118Z,63.22
2022-10-12T22:49:14.001Z,63.27
2022-10-12T22:51:42.776Z,63.12
2022-10-12T22:54:13.897Z,63.29
2022-10-12T22:56:43.441Z,63.09
2022-10-12T22:59:16.026Z,63.22
2022-10-12T23:01:45.827Z,63.03
2022-10-12T23:04:14.314Z,63.23
2022-10-12T23:06:43.082Z,63.15
2022-10-12T23:09:12.447Z,63.35
2022-10-12T23:11:41.457Z,63.45
2022-10-12T23:14:11.144Z,63.42
2022-10-12T23:16:39.866Z,63.50
2022-10-12T23:19:07.913Z,63.75
2022-10-12T23:21:36.296Z,63.58
2022-10-12T23:24:08.051Z,63.57
2022-10-12T23:26:36.827Z,63.75
2022-10-12T23:29:06.117Z,63.54
2022-10-12T23:31:36.205Z,63.43
2022-10-12T23:34:06.639Z,63.45
2022-10-12T23:36:35.569Z,63.74
2022-10-12T23:39:05.443Z,63.55
2022-10-12T23:41:34.259Z,63.46
2022-10-12T23:44:03.203Z,63.45
2022-10-12T23:46:33.175Z,63.59
2022-10-12T23:49:02.080Z,63.48
2022-10-12T23:51:31.211Z,63.53
2022-10-12T23:54:00.266Z,63.74
2022-10-12T23:56:28.927Z,63.49
2022-10-12T23:58:57.884Z,63.64
